Time;durP1;ratioP1;P1;durP2;ratioP2;P2;SDS_P1;SDS_P2;PMS_P1;PMS_P2;Temp;Humidity;BMP_temperature;BMP_pressure;BME280_temperature;BME280_humidity;BME280_pressure;Samples;Min_cycle;Max_cycle;Signal;HPM_P1;HPM_P2
2023/12/01 00:02:34;;;;;;;103.87;37.97;;;-1.30;99.90;;;;;;4411666;27;661669;-70
2023/12/01 00:05:22;;;;;;;117.60;41.78;;;-1.30;99.90;;;;;;4439508;28;661435;-71
2023/12/01 00:08:09;;;;;;;116.13;40.53;;;-1.30;99.90;;;;;;4416136;28;660439;-71
2023/12/01 00:10:56;;;;;;;120.60;42.60;;;-1.30;99.90;;;;;;4435579;28;661061;-71
2023/12/01 00:13:45;;;;;;;122.67;42.57;;;-1.30;99.90;;;;;;4418000;27;660626;-71
2023/12/01 00:16:32;;;;;;;119.43;43.23;;;-1.20;99.90;;;;;;4425544;28;660780;-71
2023/12/01 00:19:20;;;;;;;115.67;42.47;;;-1.20;99.90;;;;;;4444467;28;662152;-71
2023/12/01 00:22:07;;;;;;;122.93;43.00;;;-1.10;99.90;;;;;;4428682;28;660893;-71
2023/12/01 00:24:55;;;;;;;113.20;41.03;;;-1.10;99.90;;;;;;4431786;28;661543;-70
2023/12/01 00:27:42;;;;;;;112.83;40.87;;;-1.00;99.90;;;;;;4429781;28;660709;-71
2023/12/01 00:30:31;;;;;;;112.17;40.60;;;-1.10;99.90;;;;;;4446582;28;660912;-71
2023/12/01 00:33:18;;;;;;;100.87;38.10;;;-1.20;99.90;;;;;;4415621;28;660930;-71
2023/12/01 00:36:07;;;;;;;123.47;43.33;;;-1.20;99.90;;;;;;4431921;27;661879;-70
2023/12/01 00:38:54;;;;;;;122.10;39.33;;;-1.20;99.90;;;;;;4411390;28;660813;-70
2023/12/01 00:41:41;;;;;;;95.80;37.00;;;-1.20;99.90;;;;;;4442548;27;661083;-70
2023/12/01 00:44:28;;;;;;;102.57;39.43;;;-1.20;99.90;;;;;;4406726;28;659820;-70
2023/12/01 00:47:17;;;;;;;105.33;39.70;;;-1.20;99.90;;;;;;4431387;28;661072;-71
2023/12/01 00:50:05;;;;;;;113.50;41.73;;;-1.20;99.90;;;;;;4403644;28;662237;-70
2023/12/01 00:52:53;;;;;;;107.93;38.50;;;-1.20;99.90;;;;;;4418594;28;661149;-71
2023/12/01 00:55:40;;;;;;;113.63;42.13;;;-1.20;99.90;;;;;;4434186;28;661366;-71
2023/12/01 00:58:27;;;;;;;96.43;36.50;;;-1.20;99.90;;;;;;4406283;27;660610;-70
2023/12/01 01:01:15;;;;;;;100.90;37.63;;;-1.20;99.90;;;;;;4438434;27;660577;-70
2023/12/01 01:04:04;;;;;;;116.77;39.93;;;-1.20;99.90;;;;;;4428712;28;660522;-70
2023/12/01 01:06:51;;;;;;;102.13;38.87;;;-1.20;99.90;;;;;;4436705;28;660988;-71
2023/12/01 01:09:39;;;;;;;106.03;37.87;;;-1.20;99.90;;;;;;4407802;28;662815;-70
2023/12/01 01:12:26;;;;;;;99.30;37.63;;;-1.20;99.90;;;;;;4439674;28;661167;-71
2023/12/01 01:15:13;;;;;;;103.97;37.13;;;-1.20;99.90;;;;;;4420430;28;659478;-71
2023/12/01 01:18:01;;;;;;;97.87;36.20;;;-1.30;99.90;;;;;;4426246;28;661816;-70
2023/12/01 01:20:49;;;;;;;89.67;32.33;;;-1.30;99.90;;;;;;4410545;28;660610;-71
2023/12/01 01:23:36;;;;;;;89.30;31.43;;;-1.30;99.90;;;;;;4431053;28;660125;-71
2023/12/01 01:26:24;;;;;;;84.53;32.13;;;-1.30;99.90;;;;;;4409411;28;659488;-71
2023/12/01 01:29:11;;;;;;;76.70;29.40;;;-1.40;99.90;;;;;;4429507;28;660434;-71
2023/12/01 01:31:58;;;;;;;70.05;28.27;;;-1.40;99.90;;;;;;4411341;28;660167;-70
2023/12/01 01:34:46;;;;;;;70.40;28.80;;;-1.50;99.90;;;;;;4440516;28;660721;-70
2023/12/01 01:37:35;;;;;;;74.90;27.70;;;-1.50;99.90;;;;;;4398292;28;660328;-71
2023/12/01 01:40:22;;;;;;;75.77;29.80;;;-1.50;99.90;;;;;;4434956;28;659908;-70
2023/12/01 01:43:09;;;;;;;75.43;28.20;;;-1.40;99.90;;;;;;4405777;28;660411;-70
2023/12/01 01:46:01;;;;;;;87.50;32.07;;;-1.50;99.90;;;;;;4431119;28;660416;-70
2023/12/01 01:48:48;;;;;;;74.40;30.17;;;-1.40;99.90;;;;;;4418138;28;659377;-70
2023/12/01 01:51:35;;;;;;;73.43;30.23;;;-1.50;99.90;;;;;;4441763;28;660442;-70
2023/12/01 01:54:25;;;;;;;89.43;36.63;;;-1.50;99.90;;;;;;4407541;28;659441;-70
2023/12/01 01:57:12;;;;;;;83.07;32.80;;;-1.60;99.90;;;;;;4440809;28;659668;-71
2023/12/01 01:59:59;;;;;;;76.63;29.33;;;-1.60;99.90;;;;;;4405403;28;660242;-71
2023/12/01 02:02:46;;;;;;;71.53;26.37;;;-1.70;99.90;;;;;;4444943;28;658985;-70
2023/12/01 02:05:34;;;;;;;79.23;29.03;;;-1.70;99.90;;;;;;4422693;27;662041;-71
2023/12/01 02:08:25;;;;;;;79.70;27.40;;;-1.60;99.90;;;;;;4442950;28;660116;-70
2023/12/01 02:11:14;;;;;;;70.50;28.13;;;-1.60;99.90;;;;;;4415355;27;659711;-70
2023/12/01 02:14:02;;;;;;;72.63;29.30;;;-1.60;99.90;;;;;;4431831;27;659398;-71
2023/12/01 02:16:49;;;;;;;77.97;30.80;;;-1.70;99.90;;;;;;4402677;28;659729;-70
2023/12/01 02:19:37;;;;;;;77.63;30.10;;;-1.70;99.90;;;;;;4434740;28;659391;-71
2023/12/01 02:22:27;;;;;;;76.37;28.87;;;-1.80;99.90;;;;;;4400338;28;660695;-71
2023/12/01 02:25:15;;;;;;;80.93;27.20;;;-1.90;99.90;;;;;;4420725;28;659896;-71
2023/12/01 02:28:02;;;;;;;67.13;26.00;;;-1.90;99.90;;;;;;4441223;27;662656;-71
2023/12/01 02:30:51;;;;;;;72.43;27.03;;;-1.90;99.90;;;;;;4448683;28;660128;-71
2023/12/01 02:33:38;;;;;;;70.17;27.03;;;-1.80;99.90;;;;;;4425514;28;659527;-70
2023/12/01 02:36:25;;;;;;;64.93;25.30;;;-1.80;99.90;;;;;;4442684;27;660604;-71
2023/12/01 02:39:14;;;;;;;64.40;24.77;;;-1.80;99.90;;;;;;4421981;28;660283;-70
2023/12/01 02:42:01;;;;;;;57.27;24.27;;;-1.80;99.90;;;;;;4437137;28;659789;-71
2023/12/01 02:44:48;;;;;;;63.40;24.53;;;-1.80;99.90;;;;;;4405723;28;659785;-70
2023/12/01 02:47:35;;;;;;;61.57;24.10;;;-1.80;99.90;;;;;;4441140;27;661201;-71
2023/12/01 02:50:23;;;;;;;65.93;25.67;;;-1.80;99.90;;;;;;4406384;28;659754;-70
2023/12/01 02:53:10;;;;;;;63.47;24.88;;;-1.80;99.90;;;;;;4429696;28;660354;-71
2023/12/01 02:55:59;;;;;;;66.10;24.83;;;-1.90;99.90;;;;;;4423766;28;659890;-71
2023/12/01 02:58:46;;;;;;;58.07;23.77;;;-1.90;99.90;;;;;;4443678;28;659066;-71
2023/12/01 03:01:33;;;;;;;66.00;24.80;;;-2.00;99.90;;;;;;4405551;28;659325;-71
2023/12/01 03:04:20;;;;;;;66.50;24.73;;;-2.00;99.90;;;;;;4425599;28;660432;-71
2023/12/01 03:07:08;;;;;;;68.57;25.17;;;-2.10;99.90;;;;;;4413863;28;659578;-71
2023/12/01 03:09:55;;;;;;;64.40;24.87;;;-2.20;99.90;;;;;;4430160;28;660167;-71
2023/12/01 03:12:44;;;;;;;66.60;25.40;;;-2.20;99.90;;;;;;4446092;27;660481;-71
2023/12/01 03:15:31;;;;;;;60.77;24.33;;;-2.10;99.90;;;;;;4462307;27;659763;-70
2023/12/01 03:18:19;;;;;;;61.40;23.90;;;-2.10;99.90;;;;;;4431780;27;660239;-71
2023/12/01 03:21:12;;;;;;;60.07;23.80;;;-2.00;99.90;;;;;;4448220;27;659865;-71
2023/12/01 03:24:01;;;;;;;61.47;23.67;;;-2.00;99.90;;;;;;4400498;27;660523;-71
2023/12/01 03:26:48;;;;;;;55.40;22.80;;;-2.00;99.90;;;;;;4426624;27;660373;-71
2023/12/01 03:29:38;;;;;;;63.90;24.23;;;-2.10;99.90;;;;;;4449482;27;661158;-70
2023/12/01 03:32:25;;;;;;;62.03;24.73;;;-2.10;99.90;;;;;;4431516;27;660315;-71
2023/12/01 03:35:14;;;;;;;71.97;26.60;;;-2.10;99.90;;;;;;4441079;27;660224;-71
2023/12/01 03:38:01;;;;;;;65.60;25.23;;;-2.10;99.90;;;;;;4458411;27;660194;-70
2023/12/01 03:40:48;;;;;;;66.57;25.77;;;-2.30;99.90;;;;;;4433386;27;659643;-71
2023/12/01 03:43:35;;;;;;;63.13;23.73;;;-2.30;99.90;;;;;;4458481;27;660246;-71
2023/12/01 03:46:24;;;;;;;57.67;23.80;;;-2.40;99.90;;;;;;4434275;27;659709;-71
2023/12/01 03:49:11;;;;;;;57.73;23.70;;;-2.40;99.90;;;;;;4449831;27;660650;-71
2023/12/01 03:51:58;;;;;;;61.03;23.10;;;-2.30;99.90;;;;;;4436555;27;659394;-71
2023/12/01 03:54:45;;;;;;;62.92;23.77;;;-2.40;99.90;;;;;;4463109;27;660900;-71
2023/12/01 03:57:33;;;;;;;69.13;23.60;;;-2.30;99.90;;;;;;4439274;27;659923;-70
2023/12/01 04:00:22;;;;;;;60.37;21.83;;;-2.30;99.90;;;;;;4460689;27;661442;-70
2023/12/01 04:03:10;;;;;;;58.60;22.67;;;-2.20;99.90;;;;;;4419121;27;661469;-71
2023/12/01 04:06:01;;;;;;;53.60;21.30;;;-2.20;99.90;;;;;;4437381;28;659420;-71
2023/12/01 04:08:53;;;;;;;51.67;21.20;;;-2.20;99.90;;;;;;4436497;27;659736;-71
2023/12/01 04:11:40;;;;;;;60.53;22.10;;;-2.30;99.90;;;;;;4430426;27;660121;-71
2023/12/01 04:14:28;;;;;;;53.07;21.23;;;-2.40;99.90;;;;;;4433903;28;659650;-71
2023/12/01 04:17:16;;;;;;;55.43;21.40;;;-2.50;99.90;;;;;;4448792;27;659364;-71
2023/12/01 04:20:20;;;;;;;53.83;20.93;;;-2.50;99.90;;;;;;4430252;27;660248;-71
2023/12/01 04:23:09;;;;;;;55.20;20.90;;;-2.50;99.90;;;;;;4434160;27;659760;-71
2023/12/01 04:25:56;;;;;;;51.73;21.03;;;-2.40;99.90;;;;;;4457404;28;659872;-71
2023/12/01 04:28:43;;;;;;;56.07;21.47;;;-2.40;99.90;;;;;;4433994;27;659306;-71
2023/12/01 04:31:30;;;;;;;55.77;21.10;;;-2.40;99.90;;;;;;4452697;28;660371;-71
2023/12/01 04:34:20;;;;;;;48.40;18.77;;;-2.30;99.90;;;;;;4431759;27;659527;-70
2023/12/01 04:37:09;;;;;;;63.40;22.03;;;-2.20;99.90;;;;;;4426940;28;660571;-70
2023/12/01 04:39:56;;;;;;;55.10;22.57;;;-2.20;99.90;;;;;;4450264;27;660639;-70
2023/12/01 04:42:45;;;;;;;63.83;22.77;;;-2.30;99.90;;;;;;4428168;27;659279;-70
2023/12/01 04:45:35;;;;;;;55.00;21.60;;;-2.40;99.90;;;;;;4448320;28;659838;-71
2023/12/01 04:48:22;;;;;;;57.60;21.87;;;-2.40;99.90;;;;;;4437316;28;662173;-71
2023/12/01 04:51:09;;;;;;;56.00;22.53;;;-2.50;99.90;;;;;;4461915;27;660161;-71
2023/12/01 04:53:58;;;;;;;55.13;22.23;;;-2.40;99.90;;;;;;4458403;27;659849;-70
2023/12/01 04:56:45;;;;;;;58.90;22.80;;;-2.30;99.90;;;;;;4433003;28;660268;-70
2023/12/01 04:59:32;;;;;;;59.63;23.97;;;-2.30;99.90;;;;;;4434465;28;659620;-71
2023/12/01 05:02:20;;;;;;;54.50;21.70;;;-2.30;99.90;;;;;;4457476;28;659412;-71
2023/12/01 05:05:11;;;;;;;48.17;21.03;;;-2.30;99.90;;;;;;4453178;28;660947;-70
2023/12/01 05:07:59;;;;;;;50.40;21.43;;;-2.20;99.90;;;;;;4434279;27;659356;-71
2023/12/01 05:10:47;;;;;;;47.33;19.33;;;-2.20;99.90;;;;;;4450190;27;660215;-70
2023/12/01 05:13:34;;;;;;;53.10;20.85;;;-2.20;99.90;;;;;;4414947;28;660029;-71
2023/12/01 05:16:23;;;;;;;45.37;19.97;;;-2.10;99.90;;;;;;4452462;28;660410;-71
2023/12/01 05:19:10;;;;;;;44.03;18.13;;;-2.20;99.90;;;;;;4422946;27;660822;-71
2023/12/01 05:21:57;;;;;;;52.55;21.52;;;-2.20;99.90;;;;;;4426937;27;659810;-71
2023/12/01 05:24:45;;;;;;;47.00;18.33;;;-2.20;99.90;;;;;;4452637;28;660323;-71
2023/12/01 05:27:33;;;;;;;49.53;19.33;;;-2.20;99.90;;;;;;4443611;28;659523;-71
2023/12/01 05:30:21;;;;;;;48.20;19.27;;;-2.20;99.90;;;;;;4423801;28;660442;-71
2023/12/01 05:33:09;;;;;;;44.50;18.55;;;-2.20;99.90;;;;;;4431460;28;659512;-71
2023/12/01 05:35:56;;;;;;;42.67;18.17;;;-2.20;99.90;;;;;;4443439;28;659763;-70
2023/12/01 05:38:44;;;;;;;51.43;19.63;;;-2.00;99.90;;;;;;4421413;28;660406;-71
2023/12/01 05:41:31;;;;;;;45.47;19.67;;;-1.90;99.90;;;;;;4444206;28;659791;-70
2023/12/01 05:44:20;;;;;;;46.27;18.00;;;-1.90;99.90;;;;;;4430824;28;659536;-71
2023/12/01 05:47:07;;;;;;;38.63;17.07;;;-2.00;99.90;;;;;;4433258;28;659607;-70
2023/12/01 05:49:54;;;;;;;43.00;17.43;;;-2.00;99.90;;;;;;4447190;28;659369;-71
2023/12/01 05:52:42;;;;;;;42.80;16.60;;;-2.00;99.90;;;;;;4443573;28;660184;-71
2023/12/01 05:55:30;;;;;;;47.30;17.93;;;-1.90;99.90;;;;;;4435664;28;660096;-71
2023/12/01 05:58:17;;;;;;;39.93;16.57;;;-1.90;99.90;;;;;;4451657;28;660234;-71
2023/12/01 06:01:07;;;;;;;38.03;16.90;;;-1.90;99.90;;;;;;4441781;27;660570;-71
2023/12/01 06:03:54;;;;;;;42.77;17.07;;;-2.00;99.90;;;;;;4430837;28;659624;-71
2023/12/01 06:06:41;;;;;;;44.43;18.80;;;-2.00;99.90;;;;;;4458488;28;659694;-71
2023/12/01 06:09:28;;;;;;;67.87;22.77;;;-2.00;99.90;;;;;;4437981;28;659614;-71
2023/12/01 06:12:16;;;;;;;160.63;38.85;;;-1.90;99.90;;;;;;4449994;28;661037;-71
2023/12/01 06:15:05;;;;;;;106.57;27.77;;;-1.90;99.90;;;;;;4442997;28;661083;-71
2023/12/01 06:17:54;;;;;;;113.93;29.63;;;-1.90;99.90;;;;;;4460096;28;661158;-71
2023/12/01 06:20:41;;;;;;;127.63;33.73;;;-2.00;99.90;;;;;;4449560;28;661163;-71
2023/12/01 06:23:28;;;;;;;135.20;37.60;;;-2.00;99.90;;;;;;4444939;28;660856;-71
2023/12/01 06:26:15;;;;;;;103.78;31.15;;;-2.00;99.90;;;;;;4457695;28;660444;-71
2023/12/01 06:29:02;;;;;;;84.73;29.00;;;-2.00;99.90;;;;;;4435316;27;661048;-71
2023/12/01 06:31:50;;;;;;;94.97;34.73;;;-2.00;99.90;;;;;;4451357;27;660443;-71
2023/12/01 06:34:39;;;;;;;88.73;35.17;;;-2.00;99.90;;;;;;4464698;27;659598;-71
2023/12/01 06:37:26;;;;;;;75.53;32.43;;;-2.00;99.90;;;;;;4454094;27;661013;-71
2023/12/01 06:40:15;;;;;;;124.83;35.77;;;-2.00;99.90;;;;;;4428498;27;659321;-71
2023/12/01 06:43:09;;;;;;;53.27;19.37;;;-2.00;99.90;;;;;;4437585;27;661263;-71
2023/12/01 06:45:56;;;;;;;58.63;22.43;;;-2.00;99.90;;;;;;4434462;27;661596;-71
2023/12/01 06:48:43;;;;;;;68.73;25.83;;;-1.90;99.90;;;;;;4436224;27;660150;-71
2023/12/01 06:51:31;;;;;;;63.60;25.17;;;-1.80;99.90;;;;;;4465859;27;660096;-71
2023/12/01 06:54:19;;;;;;;97.60;34.40;;;-1.80;99.90;;;;;;4429239;28;659524;-71
2023/12/01 06:57:06;;;;;;;91.60;33.03;;;-1.70;99.90;;;;;;4444023;28;660052;-71
2023/12/01 06:59:53;;;;;;;84.10;35.97;;;-1.70;99.90;;;;;;4437560;28;659965;-71
2023/12/01 07:02:40;;;;;;;82.10;30.73;;;-1.60;99.90;;;;;;4449894;28;660794;-71
2023/12/01 07:05:28;;;;;;;67.77;27.73;;;-1.50;99.90;;;;;;4430532;28;659971;-71
2023/12/01 07:08:16;;;;;;;67.63;28.00;;;-1.40;99.90;;;;;;4445004;28;660161;-71
2023/12/01 07:11:04;;;;;;;64.07;26.77;;;-1.30;99.90;;;;;;4438425;28;659564;-71
2023/12/01 07:13:51;;;;;;;65.53;26.67;;;-1.20;99.90;;;;;;4448018;28;659394;-71
2023/12/01 07:16:38;;;;;;;89.67;34.93;;;-1.20;99.90;;;;;;4434441;28;659681;-71
2023/12/01 07:19:25;;;;;;;65.33;29.03;;;-1.10;99.90;;;;;;4456887;28;660913;-71
2023/12/01 07:22:14;;;;;;;65.77;29.87;;;-1.00;99.90;;;;;;4426854;28;659609;-71
2023/12/01 07:25:02;;;;;;;68.83;26.73;;;-0.80;99.90;;;;;;4454464;28;659907;-71
2023/12/01 07:27:50;;;;;;;66.60;27.53;;;-0.70;99.90;;;;;;4429416;28;660080;-71
2023/12/01 07:30:40;;;;;;;73.17;29.80;;;-0.60;99.90;;;;;;4447528;27;659826;-71
2023/12/01 07:33:27;;;;;;;68.50;28.63;;;-0.50;99.90;;;;;;4452230;27;659694;-71
2023/12/01 07:36:15;;;;;;;56.63;23.87;;;-0.40;99.90;;;;;;4447492;28;660181;-71
2023/12/01 07:39:02;;;;;;;62.03;23.33;;;-0.20;99.90;;;;;;4448092;28;660530;-71
2023/12/01 07:41:50;;;;;;;59.27;24.50;;;-0.20;99.90;;;;;;4426645;28;660117;-71
2023/12/01 07:44:38;;;;;;;54.40;23.13;;;-0.20;99.90;;;;;;4421243;28;659694;-71
2023/12/01 07:47:25;;;;;;;66.37;24.07;;;-0.10;99.90;;;;;;4453137;28;660545;-71
2023/12/01 07:50:14;;;;;;;61.00;24.87;;;0.00;99.90;;;;;;4432005;28;660507;-71
2023/12/01 07:53:04;;;;;;;68.07;25.75;;;0.10;99.90;;;;;;4466600;27;658734;-71
2023/12/01 07:55:51;;;;;;;64.30;25.70;;;0.20;99.90;;;;;;4443166;27;658338;-71
2023/12/01 07:58:42;;;;;;;63.43;26.40;;;0.30;99.90;;;;;;4432824;27;658566;-71
2023/12/01 08:01:29;;;;;;;61.83;25.33;;;0.40;99.90;;;;;;4427840;28;658652;-71
2023/12/01 08:04:16;;;;;;;59.93;24.83;;;0.60;99.90;;;;;;4454458;28;659451;-71
2023/12/01 08:07:04;;;;;;;68.80;27.20;;;0.70;99.90;;;;;;4427479;28;658751;-71
2023/12/01 08:09:51;;;;;;;57.73;23.90;;;0.70;99.90;;;;;;4458607;28;658893;-71
2023/12/01 08:12:38;;;;;;;70.97;25.83;;;0.80;99.90;;;;;;4436080;27;658406;-71
2023/12/01 08:15:27;;;;;;;67.20;24.37;;;0.90;99.90;;;;;;4442515;28;658718;-71
2023/12/01 08:18:15;;;;;;;64.40;24.40;;;1.00;99.90;;;;;;4438451;28;658769;-71
2023/12/01 08:21:03;;;;;;;61.97;24.43;;;1.10;99.90;;;;;;4432780;28;659484;-71
2023/12/01 08:23:50;;;;;;;70.40;26.07;;;1.30;99.90;;;;;;4445272;28;658655;-71
2023/12/01 08:26:38;;;;;;;58.85;23.38;;;1.50;99.90;;;;;;4434001;28;659071;-71
2023/12/01 08:29:25;;;;;;;53.43;21.27;;;1.70;99.90;;;;;;4465742;27;658309;-71
2023/12/01 08:32:14;;;;;;;53.83;21.20;;;1.90;99.90;;;;;;4423224;28;658318;-71
2023/12/01 08:35:01;;;;;;;66.53;24.27;;;2.10;99.90;;;;;;4455038;28;659273;-71
2023/12/01 08:37:51;;;;;;;58.53;20.53;;;2.30;99.90;;;;;;4433835;28;659209;-71
2023/12/01 08:40:38;;;;;;;47.30;18.33;;;2.40;99.90;;;;;;4423933;28;658878;-71
2023/12/01 08:43:25;;;;;;;46.70;18.47;;;2.50;99.90;;;;;;4453184;28;659300;-71
2023/12/01 08:46:13;;;;;;;50.80;18.27;;;2.40;99.90;;;;;;4438160;28;658262;-71
2023/12/01 08:49:01;;;;;;;44.40;15.87;;;2.40;99.90;;;;;;4450852;28;659773;-71
2023/12/01 08:51:48;;;;;;;41.53;15.67;;;2.70;99.90;;;;;;4440799;28;659128;-72
2023/12/01 08:54:35;;;;;;;38.33;15.87;;;2.70;99.90;;;;;;4463798;27;660188;-71
2023/12/01 08:57:23;;;;;;;44.47;16.20;;;2.80;99.90;;;;;;4441762;27;658944;-71
2023/12/01 09:00:12;;;;;;;38.57;16.07;;;2.60;99.90;;;;;;4458989;27;659681;-72
2023/12/01 09:02:59;;;;;;;45.87;17.97;;;2.60;99.90;;;;;;4427660;28;658704;-72
2023/12/01 09:05:48;;;;;;;33.33;15.80;;;2.80;99.90;;;;;;4451705;27;659073;-72
2023/12/01 09:08:35;;;;;;;42.73;17.00;;;3.00;99.90;;;;;;4429766;27;659860;-71
2023/12/01 09:11:22;;;;;;;48.47;19.63;;;3.00;99.90;;;;;;4442726;27;659964;-71
2023/12/01 09:14:09;;;;;;;45.30;19.47;;;3.00;99.90;;;;;;4449425;28;658711;-72
2023/12/01 09:16:57;;;;;;;54.53;19.80;;;3.00;99.90;;;;;;4460469;28;659283;-71
2023/12/01 09:19:44;;;;;;;53.07;20.83;;;2.60;99.90;;;;;;4424635;28;659010;-71
2023/12/01 09:22:33;;;;;;;39.37;15.53;;;2.80;99.90;;;;;;4464376;27;658038;-72
2023/12/01 09:25:20;;;;;;;43.07;15.37;;;2.90;99.90;;;;;;4431860;28;659149;-72
2023/12/01 09:28:07;;;;;;;48.10;18.30;;;2.80;99.90;;;;;;4445072;28;658673;-72
2023/12/01 09:30:55;;;;;;;43.22;16.58;;;3.00;99.90;;;;;;4460891;28;659475;-72
2023/12/01 09:33:42;;;;;;;33.27;15.93;;;3.10;99.90;;;;;;4446062;28;659164;-72
2023/12/01 09:36:30;;;;;;;30.77;13.90;;;3.10;99.90;;;;;;4431678;28;658955;-71
2023/12/01 09:39:19;;;;;;;29.63;12.23;;;3.10;99.90;;;;;;4438205;28;658495;-72
2023/12/01 09:42:07;;;;;;;28.70;11.87;;;2.80;99.90;;;;;;4461391;28;658917;-72
2023/12/01 09:44:55;;;;;;;27.20;11.60;;;2.60;99.90;;;;;;4427332;28;659442;-71
2023/12/01 09:47:45;;;;;;;31.00;12.90;;;2.80;99.90;;;;;;4453632;28;658122;-72
2023/12/01 09:50:33;;;;;;;30.77;11.80;;;2.90;99.90;;;;;;4433509;28;658806;-72
2023/12/01 09:53:20;;;;;;;25.10;10.33;;;2.90;99.90;;;;;;4460226;28;659561;-72
2023/12/01 09:56:10;;;;;;;25.87;11.13;;;3.00;99.90;;;;;;4446959;28;658695;-72
2023/12/01 09:58:57;;;;;;;25.63;10.93;;;3.20;99.90;;;;;;4439719;28;659132;-72
2023/12/01 10:01:47;;;;;;;35.33;13.70;;;3.30;99.90;;;;;;4463194;28;659460;-72
2023/12/01 10:04:34;;;;;;;31.97;14.73;;;3.40;99.90;;;;;;4427393;28;659295;-72
2023/12/01 10:07:22;;;;;;;28.67;12.67;;;3.30;99.90;;;;;;4447368;28;658952;-72
2023/12/01 10:10:19;;;;;;;34.50;15.00;;;3.10;99.90;;;;;;4435197;28;659022;-72
2023/12/01 10:13:09;;;;;;;33.77;15.30;;;3.10;99.90;;;;;;4428108;28;659021;-72
2023/12/01 10:15:56;;;;;;;29.87;13.60;;;3.20;99.90;;;;;;4429374;28;658436;-72
2023/12/01 10:18:59;;;;;;;31.48;14.50;;;3.40;99.90;;;;;;4428150;28;659197;-72
2023/12/01 10:21:48;;;;;;;26.03;11.97;;;3.60;99.90;;;;;;4435782;28;658590;-72
2023/12/01 10:24:36;;;;;;;29.40;12.13;;;3.60;99.90;;;;;;4418286;28;659964;-72
2023/12/01 10:27:23;;;;;;;24.63;11.37;;;3.70;99.90;;;;;;4445211;28;659500;-72
2023/12/01 10:30:13;;;;;;;23.83;10.97;;;3.70;99.90;;;;;;4450998;28;659808;-72
2023/12/01 10:33:02;;;;;;;20.93;9.73;;;3.80;99.90;;;;;;4436710;28;659639;-72
2023/12/01 10:36:01;;;;;;;26.30;11.90;;;3.90;99.90;;;;;;4433471;28;658782;-72
2023/12/01 10:38:48;;;;;;;28.63;11.07;;;3.60;99.90;;;;;;4406673;27;658989;-72
2023/12/01 10:41:35;;;;;;;22.73;9.80;;;3.60;99.90;;;;;;4465446;27;660939;-72
2023/12/01 10:44:23;;;;;;;20.70;9.73;;;3.80;99.90;;;;;;4447059;27;657528;-72
2023/12/01 10:47:12;;;;;;;21.10;10.97;;;4.00;99.90;;;;;;4457561;27;659099;-72
2023/12/01 10:49:59;;;;;;;22.97;11.10;;;4.00;99.90;;;;;;4432510;27;659275;-72
2023/12/01 10:52:47;;;;;;;20.53;9.13;;;4.10;99.90;;;;;;4458053;27;658565;-72
2023/12/01 10:55:34;;;;;;;19.73;9.00;;;4.20;99.90;;;;;;4426363;28;659041;-72
2023/12/01 10:58:22;;;;;;;24.48;9.45;;;3.90;99.90;;;;;;4452810;27;657456;-72
2023/12/01 11:01:09;;;;;;;23.23;10.27;;;3.90;99.90;;;;;;4431714;27;658113;-72
2023/12/01 11:03:58;;;;;;;25.53;11.50;;;3.80;99.90;;;;;;4464648;27;659370;-72
2023/12/01 11:06:55;;;;;;;29.77;12.23;;;3.70;99.90;;;;;;4439944;27;658756;-72
2023/12/01 11:09:51;;;;;;;35.23;13.63;;;3.60;99.90;;;;;;4420377;27;658831;-72
2023/12/01 11:12:48;;;;;;;49.63;19.53;;;3.60;99.90;;;;;;4424327;27;659238;-72
2023/12/01 11:15:35;;;;;;;42.77;17.00;;;3.60;99.90;;;;;;4401550;27;659374;-72
2023/12/01 11:18:24;;;;;;;35.47;16.80;;;3.50;99.90;;;;;;4428766;28;658934;-72
2023/12/01 11:21:12;;;;;;;30.93;16.07;;;3.40;99.90;;;;;;4463796;27;658194;-71
2023/12/01 11:24:24;;;;;;;27.27;13.20;;;3.40;99.90;;;;;;4443910;27;659474;-72
2023/12/01 11:27:11;;;;;;;28.30;13.33;;;3.40;99.90;;;;;;4419740;27;658932;-72
2023/12/01 11:30:00;;;;;;;24.27;12.23;;;3.30;99.90;;;;;;4432943;28;658475;-72
2023/12/01 11:32:48;;;;;;;22.67;11.03;;;3.30;99.90;;;;;;4432879;28;658950;-72
2023/12/01 11:35:35;;;;;;;24.03;10.50;;;3.30;99.90;;;;;;4458447;27;659838;-72
2023/12/01 11:38:24;;;;;;;25.23;10.87;;;3.30;99.90;;;;;;4442034;28;658462;-71
2023/12/01 11:41:23;;;;;;;21.77;10.23;;;3.20;99.90;;;;;;4444435;28;658456;-72
2023/12/01 11:44:10;;;;;;;23.87;11.30;;;3.00;99.90;;;;;;4400148;28;659363;-72
2023/12/01 11:46:58;;;;;;;28.03;10.83;;;3.10;99.90;;;;;;4437846;28;658835;-72
2023/12/01 11:49:46;;;;;;;30.23;13.87;;;3.20;99.90;;;;;;4445779;28;660119;-72
2023/12/01 11:52:33;;;;;;;36.53;17.33;;;3.20;99.90;;;;;;4444275;27;658578;-72
2023/12/01 11:55:21;;;;;;;25.47;11.77;;;3.20;99.90;;;;;;4442657;28;659871;-72
2023/12/01 11:58:09;;;;;;;29.30;12.73;;;3.10;99.90;;;;;;4443595;28;659978;-72
2023/12/01 12:00:57;;;;;;;36.67;13.60;;;3.10;99.90;;;;;;4462503;28;658762;-72
2023/12/01 12:03:44;;;;;;;28.60;12.53;;;3.00;99.90;;;;;;4431847;28;658317;-72
2023/12/01 12:06:32;;;;;;;35.57;14.83;;;3.00;99.90;;;;;;4461863;28;659727;-72
2023/12/01 12:09:19;;;;;;;31.93;13.07;;;3.00;99.90;;;;;;4426205;28;659224;-72
2023/12/01 12:12:13;;;;;;;29.60;12.27;;;2.80;99.90;;;;;;4451066;28;658799;-72
2023/12/01 12:15:07;;;;;;;28.23;12.10;;;2.80;99.90;;;;;;4438771;28;659262;-72
2023/12/01 12:17:54;;;;;;;28.67;12.00;;;2.90;99.90;;;;;;4432738;28;659619;-72
2023/12/01 12:20:41;;;;;;;25.27;11.13;;;2.80;99.90;;;;;;4462410;27;658757;-72
2023/12/01 12:23:28;;;;;;;28.87;12.20;;;2.70;99.90;;;;;;4428317;28;658735;-72
2023/12/01 12:26:17;;;;;;;27.83;11.73;;;2.60;99.90;;;;;;4451870;27;660295;-72
2023/12/01 12:29:06;;;;;;;27.55;11.65;;;2.60;99.90;;;;;;4426250;27;659076;-72
2023/12/01 12:31:53;;;;;;;26.05;10.68;;;2.60;99.90;;;;;;4436524;28;659121;-71
2023/12/01 12:34:41;;;;;;;26.20;9.87;;;2.50;99.90;;;;;;4451999;28;659511;-72
2023/12/01 12:37:28;;;;;;;16.17;7.70;;;2.50;99.90;;;;;;4430435;28;657541;-72
2023/12/01 12:40:16;;;;;;;22.57;9.27;;;2.40;99.90;;;;;;4446515;28;658588;-71
2023/12/01 12:43:07;;;;;;;17.53;8.10;;;2.20;99.90;;;;;;4428384;28;657877;-72
2023/12/01 12:45:59;;;;;;;24.30;10.33;;;2.10;99.90;;;;;;4432330;28;657646;-72
2023/12/01 12:48:46;;;;;;;23.97;11.40;;;1.90;99.90;;;;;;4425657;28;659005;-72
2023/12/01 12:51:33;;;;;;;21.50;9.93;;;1.90;99.90;;;;;;4440564;28;658534;-72
2023/12/01 12:54:20;;;;;;;22.13;10.30;;;1.80;99.90;;;;;;4465754;28;659432;-72
2023/12/01 12:57:08;;;;;;;82.70;19.13;;;1.80;99.90;;;;;;4428090;27;658632;-71
2023/12/01 12:59:55;;;;;;;35.53;11.80;;;1.80;99.90;;;;;;4463508;27;659178;-72
2023/12/01 13:02:44;;;;;;;92.00;27.33;;;1.80;99.90;;;;;;4461822;27;659952;-71
2023/12/01 13:05:31;;;;;;;85.10;22.43;;;1.70;99.90;;;;;;4453955;27;659423;-72
2023/12/01 13:08:18;;;;;;;45.08;14.02;;;1.70;99.90;;;;;;4429002;27;659749;-71
2023/12/01 13:11:06;;;;;;;24.27;10.43;;;1.60;99.90;;;;;;4451846;27;658868;-72
2023/12/01 13:13:53;;;;;;;24.70;10.27;;;1.60;99.90;;;;;;4427550;28;658418;-72
2023/12/01 13:16:40;;;;;;;22.60;10.13;;;1.60;99.90;;;;;;4455768;28;659550;-71
2023/12/01 13:19:29;;;;;;;24.77;10.77;;;1.60;99.90;;;;;;4433158;27;658485;-72
2023/12/01 13:22:16;;;;;;;29.47;14.43;;;1.50;99.90;;;;;;4466424;27;658795;-72
2023/12/01 13:25:04;;;;;;;27.93;13.60;;;1.50;99.90;;;;;;4434203;28;658507;-71
2023/12/01 13:27:51;;;;;;;38.77;18.83;;;1.60;99.90;;;;;;4454032;28;659391;-72
2023/12/01 13:30:38;;;;;;;23.50;11.40;;;1.50;99.90;;;;;;4429671;27;658773;-72
2023/12/01 13:33:26;;;;;;;31.07;12.87;;;1.50;99.90;;;;;;4450395;28;659598;-72
2023/12/01 13:36:14;;;;;;;31.60;14.33;;;1.40;99.90;;;;;;4434247;28;658906;-72
2023/12/01 13:39:02;;;;;;;32.80;14.27;;;1.40;99.90;;;;;;4452225;28;658918;-72
2023/12/01 13:41:50;;;;;;;31.40;14.00;;;1.40;99.90;;;;;;4430416;28;658963;-72
2023/12/01 13:44:37;;;;;;;41.73;16.27;;;1.30;99.90;;;;;;4443424;28;659749;-72
2023/12/01 13:47:24;;;;;;;46.37;18.03;;;1.30;99.90;;;;;;4438980;28;658955;-72
2023/12/01 13:50:11;;;;;;;53.42;18.88;;;1.30;99.90;;;;;;4446783;28;658213;-71
2023/12/01 13:53:00;;;;;;;44.47;17.83;;;1.30;99.90;;;;;;4427136;28;658932;-71
2023/12/01 13:55:47;;;;;;;33.47;13.23;;;1.20;99.90;;;;;;4441956;28;658777;-71
2023/12/01 13:58:35;;;;;;;26.73;11.23;;;1.10;99.90;;;;;;4457051;28;660066;-72
2023/12/01 14:01:22;;;;;;;28.03;12.53;;;1.10;99.90;;;;;;4451442;28;658506;-71
2023/12/01 14:04:09;;;;;;;37.67;15.13;;;1.00;99.90;;;;;;4468090;28;658676;-72
2023/12/01 14:06:57;;;;;;;37.93;15.43;;;1.00;99.90;;;;;;4459234;28;658242;-72